sensor_id;sensor_type;location;lat;lon;timestamp;P1;P2;P0
64627;PMS5003;59036;50.960;0.314;2023-02-28T00:00:37;1;1;
64627;PMS5003;59036;50.960;0.314;2023-02-28T00:03:04;2;2;
64627;PMS5003;59036;50.960;0.314;2023-02-28T00:05:32;3;3;
64627;PMS5003;59036;50.960;0.314;2023-02-28T00:08:00;1;1;
64627;PMS5003;59036;50.960;0.314;2023-02-28T00:10:28;3;3;
64627;PMS5003;59036;50.960;0.314;2023-02-28T00:12:59;2;2;
64627;PMS5003;59036;50.960;0.314;2023-02-28T00:15:27;3;3;
64627;PMS5003;59036;50.960;0.314;2023-02-28T00:17:55;3;2;
64627;PMS5003;59036;50.960;0.314;2023-02-28T00:20:22;2;2;
64627;PMS5003;59036;50.960;0.314;2023-02-28T00:22:51;3;2;
64627;PMS5003;59036;50.960;0.314;2023-02-28T00:25:20;2;2;
64627;PMS5003;59036;50.960;0.314;2023-02-28T00:27:50;2;2;
64627;PMS5003;59036;50.960;0.314;2023-02-28T00:30:18;2;2;
64627;PMS5003;59036;50.960;0.314;2023-02-28T00:32:46;1;1;
64627;PMS5003;59036;50.960;0.314;2023-02-28T00:35:13;2;2;
64627;PMS5003;59036;50.960;0.314;2023-02-28T00:37:41;2;2;
64627;PMS5003;59036;50.960;0.314;2023-02-28T00:40:10;2;2;
64627;PMS5003;59036;50.960;0.314;2023-02-28T00:42:37;3;1;
64627;PMS5003;59036;50.960;0.314;2023-02-28T00:45:06;4;4;
64627;PMS5003;59036;50.960;0.314;2023-02-28T00:47:33;2;2;
64627;PMS5003;59036;50.960;0.314;2023-02-28T00:50:01;2;2;
64627;PMS5003;59036;50.960;0.314;2023-02-28T00:52:29;3;3;
64627;PMS5003;59036;50.960;0.314;2023-02-28T00:54:56;4;3;
64627;PMS5003;59036;50.960;0.314;2023-02-28T00:57:23;6;6;
64627;PMS5003;59036;50.960;0.314;2023-02-28T00:59:50;3;3;
64627;PMS5003;59036;50.960;0.314;2023-02-28T01:02:17;3;3;
64627;PMS5003;59036;50.960;0.314;2023-02-28T01:04:45;2;2;
64627;PMS5003;59036;50.960;0.314;2023-02-28T01:07:13;2;2;
64627;PMS5003;59036;50.960;0.314;2023-02-28T01:09:40;3;3;
64627;PMS5003;59036;50.960;0.314;2023-02-28T01:12:08;3;3;
64627;PMS5003;59036;50.960;0.314;2023-02-28T01:14:35;4;3;
64627;PMS5003;59036;50.960;0.314;2023-02-28T01:17:04;3;2;
64627;PMS5003;59036;50.960;0.314;2023-02-28T01:19:30;2;2;
64627;PMS5003;59036;50.960;0.314;2023-02-28T01:22:00;4;3;
64627;PMS5003;59036;50.960;0.314;2023-02-28T01:24:28;5;5;
64627;PMS5003;59036;50.960;0.314;2023-02-28T01:26:55;3;3;
64627;PMS5003;59036;50.960;0.314;2023-02-28T01:29:22;5;4;
64627;PMS5003;59036;50.960;0.314;2023-02-28T01:31:50;4;4;
64627;PMS5003;59036;50.960;0.314;2023-02-28T01:34:17;5;4;
64627;PMS5003;59036;50.960;0.314;2023-02-28T01:36:44;5;5;
64627;PMS5003;59036;50.960;0.314;2023-02-28T01:39:11;5;5;
64627;PMS5003;59036;50.960;0.314;2023-02-28T01:41:39;6;5;
64627;PMS5003;59036;50.960;0.314;2023-02-28T01:44:53;5;5;
64627;PMS5003;59036;50.960;0.314;2023-02-28T01:47:25;4;4;
64627;PMS5003;59036;50.960;0.314;2023-02-28T01:49:57;3;3;
64627;PMS5003;59036;50.960;0.314;2023-02-28T01:52:27;4;4;
64627;PMS5003;59036;50.960;0.314;2023-02-28T01:54:55;3;3;
64627;PMS5003;59036;50.960;0.314;2023-02-28T01:57:27;5;4;
64627;PMS5003;59036;50.960;0.314;2023-02-28T01:59:59;4;4;
64627;PMS5003;59036;50.960;0.314;2023-02-28T02:02:31;3;3;
64627;PMS5003;59036;50.960;0.314;2023-02-28T02:04:59;3;2;
64627;PMS5003;59036;50.960;0.314;2023-02-28T02:07:31;3;3;
64627;PMS5003;59036;50.960;0.314;2023-02-28T02:10:02;3;3;
64627;PMS5003;59036;50.960;0.314;2023-02-28T02:12:34;5;5;
64627;PMS5003;59036;50.960;0.314;2023-02-28T02:15:16;4;4;
64627;PMS5003;59036;50.960;0.314;2023-02-28T02:17:48;4;4;
64627;PMS5003;59036;50.960;0.314;2023-02-28T02:22:38;3;3;
64627;PMS5003;59036;50.960;0.314;2023-02-28T02:25:26;4;4;
64627;PMS5003;59036;50.960;0.314;2023-02-28T02:28:06;4;4;
64627;PMS5003;59036;50.960;0.314;2023-02-28T02:30:55;3;3;
64627;PMS5003;59036;50.960;0.314;2023-02-28T02:34:24;5;4;
64627;PMS5003;59036;50.960;0.314;2023-02-28T02:36:58;4;4;
64627;PMS5003;59036;50.960;0.314;2023-02-28T02:39:36;5;4;
64627;PMS5003;59036;50.960;0.314;2023-02-28T02:42:12;4;4;
64627;PMS5003;59036;50.960;0.314;2023-02-28T02:44:43;4;4;
64627;PMS5003;59036;50.960;0.314;2023-02-28T02:47:17;6;5;
64627;PMS5003;59036;50.960;0.314;2023-02-28T02:49:48;6;6;
64627;PMS5003;59036;50.960;0.314;2023-02-28T02:52:18;6;6;
64627;PMS5003;59036;50.960;0.314;2023-02-28T02:54:50;6;6;
64627;PMS5003;59036;50.960;0.314;2023-02-28T02:57:21;11;10;
64627;PMS5003;59036;50.960;0.314;2023-02-28T02:59:52;6;5;
64627;PMS5003;59036;50.960;0.314;2023-02-28T03:02:21;6;5;
64627;PMS5003;59036;50.960;0.314;2023-02-28T03:04:51;7;7;
64627;PMS5003;59036;50.960;0.314;2023-02-28T03:07:23;5;5;
64627;PMS5003;59036;50.960;0.314;2023-02-28T03:09:51;7;6;
64627;PMS5003;59036;50.960;0.314;2023-02-28T03:12:19;10;8;
64627;PMS5003;59036;50.960;0.314;2023-02-28T03:14:52;6;6;
64627;PMS5003;59036;50.960;0.314;2023-02-28T03:17:30;8;7;
64627;PMS5003;59036;50.960;0.314;2023-02-28T03:20:15;8;7;
64627;PMS5003;59036;50.960;0.314;2023-02-28T03:22:53;7;6;
64627;PMS5003;59036;50.960;0.314;2023-02-28T03:25:30;6;6;
64627;PMS5003;59036;50.960;0.314;2023-02-28T03:28:05;12;10;
64627;PMS5003;59036;50.960;0.314;2023-02-28T03:30:42;7;7;
64627;PMS5003;59036;50.960;0.314;2023-02-28T03:33:15;8;7;
64627;PMS5003;59036;50.960;0.314;2023-02-28T03:35:47;8;7;
64627;PMS5003;59036;50.960;0.314;2023-02-28T03:38:18;10;7;
64627;PMS5003;59036;50.960;0.314;2023-02-28T03:40:53;11;10;
64627;PMS5003;59036;50.960;0.314;2023-02-28T03:43:28;7;7;
64627;PMS5003;59036;50.960;0.314;2023-02-28T03:46:00;8;6;
64627;PMS5003;59036;50.960;0.314;2023-02-28T03:48:32;8;7;
64627;PMS5003;59036;50.960;0.314;2023-02-28T03:51:05;16;16;
64627;PMS5003;59036;50.960;0.314;2023-02-28T03:53:36;8;7;
64627;PMS5003;59036;50.960;0.314;2023-02-28T03:56:09;6;6;
64627;PMS5003;59036;50.960;0.314;2023-02-28T03:58:42;7;7;
64627;PMS5003;59036;50.960;0.314;2023-02-28T04:01:15;8;7;
64627;PMS5003;59036;50.960;0.314;2023-02-28T04:03:46;7;6;
64627;PMS5003;59036;50.960;0.314;2023-02-28T04:06:14;5;5;
64627;PMS5003;59036;50.960;0.314;2023-02-28T04:08:44;7;7;
64627;PMS5003;59036;50.960;0.314;2023-02-28T04:11:15;6;6;
64627;PMS5003;59036;50.960;0.314;2023-02-28T04:13:46;6;6;
64627;PMS5003;59036;50.960;0.314;2023-02-28T04:16:14;6;5;
64627;PMS5003;59036;50.960;0.314;2023-02-28T04:18:42;6;6;
64627;PMS5003;59036;50.960;0.314;2023-02-28T04:21:09;7;7;
64627;PMS5003;59036;50.960;0.314;2023-02-28T04:23:37;7;7;
64627;PMS5003;59036;50.960;0.314;2023-02-28T04:26:04;7;7;
64627;PMS5003;59036;50.960;0.314;2023-02-28T04:28:32;6;6;
64627;PMS5003;59036;50.960;0.314;2023-02-28T04:31:00;11;8;
64627;PMS5003;59036;50.960;0.314;2023-02-28T04:33:29;7;7;
64627;PMS5003;59036;50.960;0.314;2023-02-28T04:35:58;11;8;
64627;PMS5003;59036;50.960;0.314;2023-02-28T04:38:25;9;9;
64627;PMS5003;59036;50.960;0.314;2023-02-28T04:40:52;12;11;
64627;PMS5003;59036;50.960;0.314;2023-02-28T04:43:20;10;10;
64627;PMS5003;59036;50.960;0.314;2023-02-28T04:45:47;8;8;
64627;PMS5003;59036;50.960;0.314;2023-02-28T04:48:14;13;10;
64627;PMS5003;59036;50.960;0.314;2023-02-28T04:50:41;9;9;
64627;PMS5003;59036;50.960;0.314;2023-02-28T04:53:08;10;10;
64627;PMS5003;59036;50.960;0.314;2023-02-28T04:55:36;10;8;
64627;PMS5003;59036;50.960;0.314;2023-02-28T04:58:03;8;8;
64627;PMS5003;59036;50.960;0.314;2023-02-28T05:00:30;10;8;
64627;PMS5003;59036;50.960;0.314;2023-02-28T05:02:57;11;10;
64627;PMS5003;59036;50.960;0.314;2023-02-28T05:05:25;12;11;
64627;PMS5003;59036;50.960;0.314;2023-02-28T05:07:52;11;10;
64627;PMS5003;59036;50.960;0.314;2023-02-28T05:10:19;10;10;
64627;PMS5003;59036;50.960;0.314;2023-02-28T05:12:46;11;8;
64627;PMS5003;59036;50.960;0.314;2023-02-28T05:15:14;10;10;
64627;PMS5003;59036;50.960;0.314;2023-02-28T05:17:43;10;10;
64627;PMS5003;59036;50.960;0.314;2023-02-28T05:20:10;10;10;
64627;PMS5003;59036;50.960;0.314;2023-02-28T05:22:38;12;12;
64627;PMS5003;59036;50.960;0.314;2023-02-28T05:25:06;13;12;
64627;PMS5003;59036;50.960;0.314;2023-02-28T05:27:36;12;11;
64627;PMS5003;59036;50.960;0.314;2023-02-28T05:30:04;15;14;
64627;PMS5003;59036;50.960;0.314;2023-02-28T05:32:31;11;11;
64627;PMS5003;59036;50.960;0.314;2023-02-28T05:34:59;13;12;
64627;PMS5003;59036;50.960;0.314;2023-02-28T05:37:26;14;13;
64627;PMS5003;59036;50.960;0.314;2023-02-28T05:39:53;20;16;
64627;PMS5003;59036;50.960;0.314;2023-02-28T05:42:21;16;15;
64627;PMS5003;59036;50.960;0.314;2023-02-28T05:44:48;16;14;
64627;PMS5003;59036;50.960;0.314;2023-02-28T05:47:15;14;13;
64627;PMS5003;59036;50.960;0.314;2023-02-28T05:49:42;16;15;
64627;PMS5003;59036;50.960;0.314;2023-02-28T05:52:10;12;12;
64627;PMS5003;59036;50.960;0.314;2023-02-28T05:54:37;13;12;
64627;PMS5003;59036;50.960;0.314;2023-02-28T05:57:04;17;15;
64627;PMS5003;59036;50.960;0.314;2023-02-28T05:59:31;15;13;
64627;PMS5003;59036;50.960;0.314;2023-02-28T06:01:58;15;14;
64627;PMS5003;59036;50.960;0.314;2023-02-28T06:04:26;13;13;
64627;PMS5003;59036;50.960;0.314;2023-02-28T06:06:53;14;14;
64627;PMS5003;59036;50.960;0.314;2023-02-28T06:09:20;15;15;
64627;PMS5003;59036;50.960;0.314;2023-02-28T06:11:47;13;13;
64627;PMS5003;59036;50.960;0.314;2023-02-28T06:14:15;17;16;
64627;PMS5003;59036;50.960;0.314;2023-02-28T06:16:44;15;15;
64627;PMS5003;59036;50.960;0.314;2023-02-28T06:19:12;15;15;
64627;PMS5003;59036;50.960;0.314;2023-02-28T06:21:39;15;15;
64627;PMS5003;59036;50.960;0.314;2023-02-28T06:24:07;16;16;
64627;PMS5003;59036;50.960;0.314;2023-02-28T06:26:34;15;15;
64627;PMS5003;59036;50.960;0.314;2023-02-28T06:29:02;16;15;
64627;PMS5003;59036;50.960;0.314;2023-02-28T06:31:29;15;14;
64627;PMS5003;59036;50.960;0.314;2023-02-28T06:33:56;15;14;
64627;PMS5003;59036;50.960;0.314;2023-02-28T06:36:23;16;15;
64627;PMS5003;59036;50.960;0.314;2023-02-28T06:38:50;17;17;
64627;PMS5003;59036;50.960;0.314;2023-02-28T06:41:23;13;13;
64627;PMS5003;59036;50.960;0.314;2023-02-28T06:43:51;15;15;
64627;PMS5003;59036;50.960;0.314;2023-02-28T06:46:19;18;16;
64627;PMS5003;59036;50.960;0.314;2023-02-28T06:48:46;12;12;
64627;PMS5003;59036;50.960;0.314;2023-02-28T06:51:14;14;14;
64627;PMS5003;59036;50.960;0.314;2023-02-28T06:53:43;17;15;
64627;PMS5003;59036;50.960;0.314;2023-02-28T06:56:11;16;16;
64627;PMS5003;59036;50.960;0.314;2023-02-28T06:58:39;12;12;
64627;PMS5003;59036;50.960;0.314;2023-02-28T07:01:06;16;14;
64627;PMS5003;59036;50.960;0.314;2023-02-28T07:03:34;14;14;
64627;PMS5003;59036;50.960;0.314;2023-02-28T07:06:02;13;13;
64627;PMS5003;59036;50.960;0.314;2023-02-28T07:08:31;14;14;
64627;PMS5003;59036;50.960;0.314;2023-02-28T07:10:58;13;12;
64627;PMS5003;59036;50.960;0.314;2023-02-28T07:13:25;16;15;
64627;PMS5003;59036;50.960;0.314;2023-02-28T07:15:53;14;14;
64627;PMS5003;59036;50.960;0.314;2023-02-28T07:18:21;14;14;
64627;PMS5003;59036;50.960;0.314;2023-02-28T07:20:48;14;14;
64627;PMS5003;59036;50.960;0.314;2023-02-28T07:23:15;15;13;
64627;PMS5003;59036;50.960;0.314;2023-02-28T07:25:43;15;14;
64627;PMS5003;59036;50.960;0.314;2023-02-28T07:28:12;15;14;
64627;PMS5003;59036;50.960;0.314;2023-02-28T07:30:39;14;14;
64627;PMS5003;59036;50.960;0.314;2023-02-28T07:33:07;13;13;
64627;PMS5003;59036;50.960;0.314;2023-02-28T07:35:34;17;17;
64627;PMS5003;59036;50.960;0.314;2023-02-28T07:38:01;12;12;
64627;PMS5003;59036;50.960;0.314;2023-02-28T07:40:28;11;11;
64627;PMS5003;59036;50.960;0.314;2023-02-28T07:42:57;11;10;
64627;PMS5003;59036;50.960;0.314;2023-02-28T07:45:25;10;10;
64627;PMS5003;59036;50.960;0.314;2023-02-28T07:47:54;12;12;
64627;PMS5003;59036;50.960;0.314;2023-02-28T07:50:22;11;10;
64627;PMS5003;59036;50.960;0.314;2023-02-28T07:52:49;13;13;
64627;PMS5003;59036;50.960;0.314;2023-02-28T07:55:16;12;11;
64627;PMS5003;59036;50.960;0.314;2023-02-28T07:57:44;16;14;
64627;PMS5003;59036;50.960;0.314;2023-02-28T08:00:12;12;12;
64627;PMS5003;59036;50.960;0.314;2023-02-28T08:02:39;12;11;
64627;PMS5003;59036;50.960;0.314;2023-02-28T08:05:07;10;10;
64627;PMS5003;59036;50.960;0.314;2023-02-28T08:07:35;10;10;
64627;PMS5003;59036;50.960;0.314;2023-02-28T08:10:02;10;10;
64627;PMS5003;59036;50.960;0.314;2023-02-28T08:12:30;13;12;
64627;PMS5003;59036;50.960;0.314;2023-02-28T08:14:57;12;11;
64627;PMS5003;59036;50.960;0.314;2023-02-28T08:17:24;10;10;
64627;PMS5003;59036;50.960;0.314;2023-02-28T08:19:52;12;12;
64627;PMS5003;59036;50.960;0.314;2023-02-28T08:22:19;13;12;
64627;PMS5003;59036;50.960;0.314;2023-02-28T08:24:46;11;11;
64627;PMS5003;59036;50.960;0.314;2023-02-28T08:27:13;14;13;
64627;PMS5003;59036;50.960;0.314;2023-02-28T08:29:41;8;8;
64627;PMS5003;59036;50.960;0.314;2023-02-28T08:32:08;9;9;
64627;PMS5003;59036;50.960;0.314;2023-02-28T08:34:41;9;8;
64627;PMS5003;59036;50.960;0.314;2023-02-28T08:37:08;8;8;
64627;PMS5003;59036;50.960;0.314;2023-02-28T08:39:36;7;7;
64627;PMS5003;59036;50.960;0.314;2023-02-28T08:42:03;9;9;
64627;PMS5003;59036;50.960;0.314;2023-02-28T08:44:31;7;6;
64627;PMS5003;59036;50.960;0.314;2023-02-28T08:46:58;8;7;
64627;PMS5003;59036;50.960;0.314;2023-02-28T08:49:25;7;6;
64627;PMS5003;59036;50.960;0.314;2023-02-28T08:51:53;8;7;
64627;PMS5003;59036;50.960;0.314;2023-02-28T08:54:20;5;5;
64627;PMS5003;59036;50.960;0.314;2023-02-28T08:56:47;5;5;
64627;PMS5003;59036;50.960;0.314;2023-02-28T08:59:15;6;6;
64627;PMS5003;59036;50.960;0.314;2023-02-28T09:01:43;6;6;
64627;PMS5003;59036;50.960;0.314;2023-02-28T09:04:10;7;7;
64627;PMS5003;59036;50.960;0.314;2023-02-28T09:06:37;6;6;
64627;PMS5003;59036;50.960;0.314;2023-02-28T09:09:04;6;6;
64627;PMS5003;59036;50.960;0.314;2023-02-28T09:11:33;6;6;
64627;PMS5003;59036;50.960;0.314;2023-02-28T09:14:01;6;6;
64627;PMS5003;59036;50.960;0.314;2023-02-28T09:16:29;5;5;
64627;PMS5003;59036;50.960;0.314;2023-02-28T09:18:57;7;6;
64627;PMS5003;59036;50.960;0.314;2023-02-28T09:21:25;5;5;
64627;PMS5003;59036;50.960;0.314;2023-02-28T09:23:53;5;5;
64627;PMS5003;59036;50.960;0.314;2023-02-28T09:26:21;5;5;
64627;PMS5003;59036;50.960;0.314;2023-02-28T09:28:50;5;5;
64627;PMS5003;59036;50.960;0.314;2023-02-28T09:31:18;6;5;
64627;PMS5003;59036;50.960;0.314;2023-02-28T09:33:47;5;5;
64627;PMS5003;59036;50.960;0.314;2023-02-28T09:36:14;6;5;
64627;PMS5003;59036;50.960;0.314;2023-02-28T09:38:41;5;5;
64627;PMS5003;59036;50.960;0.314;2023-02-28T09:41:11;5;5;
64627;PMS5003;59036;50.960;0.314;2023-02-28T09:43:43;5;5;
64627;PMS5003;59036;50.960;0.314;2023-02-28T09:46:19;6;6;
64627;PMS5003;59036;50.960;0.314;2023-02-28T09:48:54;4;4;
64627;PMS5003;59036;50.960;0.314;2023-02-28T09:51:30;6;5;
64627;PMS5003;59036;50.960;0.314;2023-02-28T09:54:12;6;5;
64627;PMS5003;59036;50.960;0.314;2023-02-28T09:56:42;5;5;
64627;PMS5003;59036;50.960;0.314;2023-02-28T09:59:11;5;5;
64627;PMS5003;59036;50.960;0.314;2023-02-28T10:01:52;6;5;
64627;PMS5003;59036;50.960;0.314;2023-02-28T10:04:28;6;5;
64627;PMS5003;59036;50.960;0.314;2023-02-28T10:07:07;7;6;
64627;PMS5003;59036;50.960;0.314;2023-02-28T10:09:43;5;5;
64627;PMS5003;59036;50.960;0.314;2023-02-28T10:12:13;5;5;
64627;PMS5003;59036;50.960;0.314;2023-02-28T10:14:43;5;5;
64627;PMS5003;59036;50.960;0.314;2023-02-28T10:17:14;6;5;
64627;PMS5003;59036;50.960;0.314;2023-02-28T10:19:47;5;5;
64627;PMS5003;59036;50.960;0.314;2023-02-28T10:22:23;4;4;
64627;PMS5003;59036;50.960;0.314;2023-02-28T10:24:56;3;3;
64627;PMS5003;59036;50.960;0.314;2023-02-28T10:27:25;2;2;
64627;PMS5003;59036;50.960;0.314;2023-02-28T10:29:58;2;2;
64627;PMS5003;59036;50.960;0.314;2023-02-28T10:32:28;3;2;
64627;PMS5003;59036;50.960;0.314;2023-02-28T10:34:58;3;3;
64627;PMS5003;59036;50.960;0.314;2023-02-28T10:37:30;3;3;
64627;PMS5003;59036;50.960;0.314;2023-02-28T10:39:58;3;3;
64627;PMS5003;59036;50.960;0.314;2023-02-28T10:42:25;4;4;
64627;PMS5003;59036;50.960;0.314;2023-02-28T10:45:10;3;3;
64627;PMS5003;59036;50.960;0.314;2023-02-28T10:47:41;2;2;
64627;PMS5003;59036;50.960;0.314;2023-02-28T10:50:35;3;3;
64627;PMS5003;59036;50.960;0.314;2023-02-28T10:53:38;2;2;
64627;PMS5003;59036;50.960;0.314;2023-02-28T10:56:14;3;3;
64627;PMS5003;59036;50.960;0.314;2023-02-28T10:58:52;2;2;
64627;PMS5003;59036;50.960;0.314;2023-02-28T11:01:21;3;3;
64627;PMS5003;59036;50.960;0.314;2023-02-28T11:03:49;10;9;
64627;PMS5003;59036;50.960;0.314;2023-02-28T11:06:18;8;7;
64627;PMS5003;59036;50.960;0.314;2023-02-28T11:08:48;4;4;
64627;PMS5003;59036;50.960;0.314;2023-02-28T11:11:19;5;4;
64627;PMS5003;59036;50.960;0.314;2023-02-28T11:13:47;1;1;
64627;PMS5003;59036;50.960;0.314;2023-02-28T11:16:19;2;2;
64627;PMS5003;59036;50.960;0.314;2023-02-28T11:18:48;4;4;
64627;PMS5003;59036;50.960;0.314;2023-02-28T11:21:19;4;4;
64627;PMS5003;59036;50.960;0.314;2023-02-28T11:23:51;2;1;
64627;PMS5003;59036;50.960;0.314;2023-02-28T11:26:37;3;3;
64627;PMS5003;59036;50.960;0.314;2023-02-28T11:29:17;2;2;
64627;PMS5003;59036;50.960;0.314;2023-02-28T11:32:04;2;2;
64627;PMS5003;59036;50.960;0.314;2023-02-28T11:34:38;1;1;
64627;PMS5003;59036;50.960;0.314;2023-02-28T11:37:10;2;2;
64627;PMS5003;59036;50.960;0.314;2023-02-28T11:39:40;4;4;
64627;PMS5003;59036;50.960;0.314;2023-02-28T11:42:13;2;2;
64627;PMS5003;59036;50.960;0.314;2023-02-28T11:44:56;3;3;
64627;PMS5003;59036;50.960;0.314;2023-02-28T11:47:39;3;3;
64627;PMS5003;59036;50.960;0.314;2023-02-28T11:50:16;3;2;
64627;PMS5003;59036;50.960;0.314;2023-02-28T11:52:51;2;2;
64627;PMS5003;59036;50.960;0.314;2023-02-28T11:55:21;3;3;
64627;PMS5003;59036;50.960;0.314;2023-02-28T11:57:56;3;3;
64627;PMS5003;59036;50.960;0.314;2023-02-28T12:00:38;5;5;
64627;PMS5003;59036;50.960;0.314;2023-02-28T12:03:15;5;5;
64627;PMS5003;59036;50.960;0.314;2023-02-28T12:05:54;3;3;
64627;PMS5003;59036;50.960;0.314;2023-02-28T12:08:36;4;4;
64627;PMS5003;59036;50.960;0.314;2023-02-28T12:11:19;11;11;
64627;PMS5003;59036;50.960;0.314;2023-02-28T12:14:04;11;10;
64627;PMS5003;59036;50.960;0.314;2023-02-28T12:16:46;10;10;
64627;PMS5003;59036;50.960;0.314;2023-02-28T12:19:22;5;5;
64627;PMS5003;59036;50.960;0.314;2023-02-28T12:21:59;7;7;
64627;PMS5003;59036;50.960;0.314;2023-02-28T12:24:53;6;6;
64627;PMS5003;59036;50.960;0.314;2023-02-28T12:27:30;7;6;
64627;PMS5003;59036;50.960;0.314;2023-02-28T12:30:04;4;4;
64627;PMS5003;59036;50.960;0.314;2023-02-28T12:32:40;4;4;
64627;PMS5003;59036;50.960;0.314;2023-02-28T12:35:12;4;4;
64627;PMS5003;59036;50.960;0.314;2023-02-28T12:37:44;5;4;
64627;PMS5003;59036;50.960;0.314;2023-02-28T12:40:17;4;4;
64627;PMS5003;59036;50.960;0.314;2023-02-28T12:42:48;4;4;
64627;PMS5003;59036;50.960;0.314;2023-02-28T12:45:18;4;4;
64627;PMS5003;59036;50.960;0.314;2023-02-28T12:47:50;6;5;
64627;PMS5003;59036;50.960;0.314;2023-02-28T12:50:22;5;5;
64627;PMS5003;59036;50.960;0.314;2023-02-28T12:52:52;7;7;
64627;PMS5003;59036;50.960;0.314;2023-02-28T12:55:28;7;6;
64627;PMS5003;59036;50.960;0.314;2023-02-28T12:58:05;6;6;
64627;PMS5003;59036;50.960;0.314;2023-02-28T13:00:43;6;6;
64627;PMS5003;59036;50.960;0.314;2023-02-28T13:03:31;6;6;
64627;PMS5003;59036;50.960;0.314;2023-02-28T13:06:28;6;6;
64627;PMS5003;59036;50.960;0.314;2023-02-28T13:09:12;9;9;
64627;PMS5003;59036;50.960;0.314;2023-02-28T13:11:41;7;7;
64627;PMS5003;59036;50.960;0.314;2023-02-28T13:14:26;8;8;
64627;PMS5003;59036;50.960;0.314;2023-02-28T13:16:58;9;9;
64627;PMS5003;59036;50.960;0.314;2023-02-28T13:19:29;8;8;
64627;PMS5003;59036;50.960;0.314;2023-02-28T13:22:00;6;6;
64627;PMS5003;59036;50.960;0.314;2023-02-28T13:24:38;7;7;
64627;PMS5003;59036;50.960;0.314;2023-02-28T13:27:24;9;9;
64627;PMS5003;59036;50.960;0.314;2023-02-28T13:30:02;9;9;
64627;PMS5003;59036;50.960;0.314;2023-02-28T13:33:32;6;6;
64627;PMS5003;59036;50.960;0.314;2023-02-28T13:36:10;11;11;
64627;PMS5003;59036;50.960;0.314;2023-02-28T13:38:52;11;10;
64627;PMS5003;59036;50.960;0.314;2023-02-28T13:41:53;10;10;
64627;PMS5003;59036;50.960;0.314;2023-02-28T13:44:20;9;8;
64627;PMS5003;59036;50.960;0.314;2023-02-28T13:47:22;9;9;
64627;PMS5003;59036;50.960;0.314;2023-02-28T13:49:55;9;9;
64627;PMS5003;59036;50.960;0.314;2023-02-28T13:52:43;9;9;
64627;PMS5003;59036;50.960;0.314;2023-02-28T13:55:21;9;9;
64627;PMS5003;59036;50.960;0.314;2023-02-28T13:57:56;8;8;
64627;PMS5003;59036;50.960;0.314;2023-02-28T14:00:37;11;11;
64627;PMS5003;59036;50.960;0.314;2023-02-28T14:03:17;13;13;
64627;PMS5003;59036;50.960;0.314;2023-02-28T14:06:15;15;14;
64627;PMS5003;59036;50.960;0.314;2023-02-28T14:08:50;17;17;
64627;PMS5003;59036;50.960;0.314;2023-02-28T14:11:24;16;16;
64627;PMS5003;59036;50.960;0.314;2023-02-28T14:13:55;10;10;
64627;PMS5003;59036;50.960;0.314;2023-02-28T14:16:23;13;13;
64627;PMS5003;59036;50.960;0.314;2023-02-28T14:18:56;10;10;
64627;PMS5003;59036;50.960;0.314;2023-02-28T14:21:27;9;9;
64627;PMS5003;59036;50.960;0.314;2023-02-28T14:24:21;9;9;
64627;PMS5003;59036;50.960;0.314;2023-02-28T14:27:11;8;8;
64627;PMS5003;59036;50.960;0.314;2023-02-28T14:29:59;8;8;
64627;PMS5003;59036;50.960;0.314;2023-02-28T14:32:41;8;8;
64627;PMS5003;59036;50.960;0.314;2023-02-28T14:35:18;8;8;
64627;PMS5003;59036;50.960;0.314;2023-02-28T14:38:02;6;6;
64627;PMS5003;59036;50.960;0.314;2023-02-28T14:40:32;8;8;
64627;PMS5003;59036;50.960;0.314;2023-02-28T14:43:01;7;7;
64627;PMS5003;59036;50.960;0.314;2023-02-28T14:45:30;8;8;
64627;PMS5003;59036;50.960;0.314;2023-02-28T14:47:59;8;8;
64627;PMS5003;59036;50.960;0.314;2023-02-28T14:50:31;10;10;
64627;PMS5003;59036;50.960;0.314;2023-02-28T14:53:01;10;10;
64627;PMS5003;59036;50.960;0.314;2023-02-28T14:55:30;9;8;
64627;PMS5003;59036;50.960;0.314;2023-02-28T14:57:58;8;8;
64627;PMS5003;59036;50.960;0.314;2023-02-28T15:00:28;8;8;
64627;PMS5003;59036;50.960;0.314;2023-02-28T15:02:57;7;7;
64627;PMS5003;59036;50.960;0.314;2023-02-28T15:05:27;8;8;
64627;PMS5003;59036;50.960;0.314;2023-02-28T15:08:05;8;8;
64627;PMS5003;59036;50.960;0.314;2023-02-28T15:10:38;9;9;
64627;PMS5003;59036;50.960;0.314;2023-02-28T15:13:11;8;8;
64627;PMS5003;59036;50.960;0.314;2023-02-28T15:15:42;10;10;
64627;PMS5003;59036;50.960;0.314;2023-02-28T15:18:15;9;9;
64627;PMS5003;59036;50.960;0.314;2023-02-28T15:20:50;10;10;
64627;PMS5003;59036;50.960;0.314;2023-02-28T15:23:18;11;11;
64627;PMS5003;59036;50.960;0.314;2023-02-28T15:25:47;11;10;
64627;PMS5003;59036;50.960;0.314;2023-02-28T15:28:18;10;10;
64627;PMS5003;59036;50.960;0.314;2023-02-28T15:30:53;8;8;
64627;PMS5003;59036;50.960;0.314;2023-02-28T15:33:23;6;6;
64627;PMS5003;59036;50.960;0.314;2023-02-28T15:35:51;6;6;
64627;PMS5003;59036;50.960;0.314;2023-02-28T15:38:33;6;5;
64627;PMS5003;59036;50.960;0.314;2023-02-28T15:41:02;6;6;
64627;PMS5003;59036;50.960;0.314;2023-02-28T15:43:29;5;5;
64627;PMS5003;59036;50.960;0.314;2023-02-28T15:46:08;6;6;
64627;PMS5003;59036;50.960;0.314;2023-02-28T15:48:38;6;6;
64627;PMS5003;59036;50.960;0.314;2023-02-28T15:51:14;6;6;
64627;PMS5003;59036;50.960;0.314;2023-02-28T15:53:45;5;5;
64627;PMS5003;59036;50.960;0.314;2023-02-28T15:56:20;5;5;
64627;PMS5003;59036;50.960;0.314;2023-02-28T15:58:50;4;4;
64627;PMS5003;59036;50.960;0.314;2023-02-28T16:01:24;5;5;
64627;PMS5003;59036;50.960;0.314;2023-02-28T16:03:53;8;8;
64627;PMS5003;59036;50.960;0.314;2023-02-28T16:06:24;6;6;
64627;PMS5003;59036;50.960;0.314;2023-02-28T16:08:57;4;4;
64627;PMS5003;59036;50.960;0.314;2023-02-28T16:11:24;6;6;
64627;PMS5003;59036;50.960;0.314;2023-02-28T16:13:52;5;5;
64627;PMS5003;59036;50.960;0.314;2023-02-28T16:16:21;7;6;
64627;PMS5003;59036;50.960;0.314;2023-02-28T16:18:50;7;6;
64627;PMS5003;59036;50.960;0.314;2023-02-28T16:21:18;7;7;
64627;PMS5003;59036;50.960;0.314;2023-02-28T16:23:45;6;6;
64627;PMS5003;59036;50.960;0.314;2023-02-28T16:26:16;6;6;
64627;PMS5003;59036;50.960;0.314;2023-02-28T16:28:48;7;6;
64627;PMS5003;59036;50.960;0.314;2023-02-28T16:31:16;7;6;
64627;PMS5003;59036;50.960;0.314;2023-02-28T16:33:44;6;6;
64627;PMS5003;59036;50.960;0.314;2023-02-28T16:36:13;8;7;
64627;PMS5003;59036;50.960;0.314;2023-02-28T16:38:42;6;6;
64627;PMS5003;59036;50.960;0.314;2023-02-28T16:41:12;6;6;
64627;PMS5003;59036;50.960;0.314;2023-02-28T16:43:43;5;5;
64627;PMS5003;59036;50.960;0.314;2023-02-28T16:46:12;8;8;
64627;PMS5003;59036;50.960;0.314;2023-02-28T16:48:40;11;11;
64627;PMS5003;59036;50.960;0.314;2023-02-28T16:51:10;8;7;
64627;PMS5003;59036;50.960;0.314;2023-02-28T16:53:39;6;6;
64627;PMS5003;59036;50.960;0.314;2023-02-28T16:56:11;6;6;
64627;PMS5003;59036;50.960;0.314;2023-02-28T16:58:42;16;13;
64627;PMS5003;59036;50.960;0.314;2023-02-28T17:01:10;9;9;
64627;PMS5003;59036;50.960;0.314;2023-02-28T17:03:38;5;4;
64627;PMS5003;59036;50.960;0.314;2023-02-28T17:06:06;9;8;
64627;PMS5003;59036;50.960;0.314;2023-02-28T17:08:42;6;6;
64627;PMS5003;59036;50.960;0.314;2023-02-28T17:11:09;7;7;
64627;PMS5003;59036;50.960;0.314;2023-02-28T17:13:37;7;7;